Time;durP1;ratioP1;P1;durP2;ratioP2;P2;SDS_P1;SDS_P2;PMS_P1;PMS_P2;Temp;Humidity;BMP_temperature;BMP_pressure;BME280_temperature;BME280_humidity;BME280_pressure;Samples;Min_cycle;Max_cycle;Signal;HPM_P1;HPM_P2
2023/02/13 00:00:05;;;;;;;43.20;21.60;;;;;;;4.66;100.00;103885.72;5114329;28;20032;-73
2023/02/13 00:02:30;;;;;;;45.47;21.70;;;;;;;4.65;100.00;103886.63;5114165;28;20154;-74
2023/02/13 00:04:56;;;;;;;45.78;21.50;;;;;;;4.64;100.00;103887.53;5114219;28;20118;-73
2023/02/13 00:07:21;;;;;;;44.80;21.42;;;;;;;4.65;100.00;103889.28;5113651;28;20055;-73
2023/02/13 00:09:46;;;;;;;42.95;20.80;;;;;;;4.63;100.00;103884.03;5114078;28;20027;-73
2023/02/13 00:12:12;;;;;;;49.15;21.50;;;;;;;4.62;100.00;103887.53;5114029;28;20484;-74
2023/02/13 00:14:38;;;;;;;42.35;20.42;;;;;;;4.61;100.00;103884.94;5112767;28;20032;-73
2023/02/13 00:17:05;;;;;;;44.47;22.23;;;;;;;4.62;100.00;103889.31;5112828;28;20112;-73
2023/02/13 00:19:30;;;;;;;44.45;21.60;;;;;;;4.61;100.00;103887.56;5113767;28;20051;-73
2023/02/13 00:21:56;;;;;;;43.25;22.17;;;;;;;4.62;100.00;103881.41;5113890;28;20131;-73
2023/02/13 00:24:21;;;;;;;49.78;24.05;;;;;;;4.59;100.00;103880.53;5114289;28;20035;-73
2023/02/13 00:26:46;;;;;;;47.08;22.23;;;;;;;4.61;100.00;103879.66;5113880;28;20123;-73
2023/02/13 00:29:12;;;;;;;42.88;22.05;;;;;;;4.61;100.00;103879.66;5114112;28;20031;-73
2023/02/13 00:31:37;;;;;;;45.30;21.45;;;;;;;4.61;100.00;103884.94;5113780;28;20451;-73
2023/02/13 00:34:03;;;;;;;50.03;23.15;;;;;;;4.58;100.00;103878.84;5114107;28;20027;-73
2023/02/13 00:36:28;;;;;;;46.00;22.08;;;;;;;4.58;100.00;103875.28;5113539;28;20118;-72
2023/02/13 00:38:53;;;;;;;48.17;22.83;;;;;;;4.56;100.00;103875.31;5113929;28;20031;-73
2023/02/13 00:41:19;;;;;;;47.58;22.65;;;;;;;4.58;100.00;103883.22;5114286;28;20061;-73
2023/02/13 00:43:46;;;;;;;46.50;21.88;;;;;;;4.57;100.00;103882.34;5113765;28;20031;-73
2023/02/13 00:46:12;;;;;;;44.22;21.85;;;;;;;4.55;100.00;103878.00;5112424;28;20030;-72
2023/02/13 00:48:37;;;;;;;46.70;21.30;;;;;;;4.55;100.00;103872.72;5114924;28;20027;-73
2023/02/13 00:51:04;;;;;;;48.30;22.23;;;;;;;4.54;100.00;103879.78;5117507;28;20063;-73
2023/02/13 00:53:30;;;;;;;44.58;22.38;;;;;;;4.54;100.00;103877.13;5117676;28;20024;-72
2023/02/13 00:55:55;;;;;;;43.45;21.30;;;;;;;4.53;100.00;103874.53;5117532;28;20032;-73
2023/02/13 00:58:22;;;;;;;41.92;21.88;;;;;;;4.51;100.00;103874.53;5117577;28;20114;-72
2023/02/13 01:00:47;;;;;;;43.88;21.38;;;;;;;4.52;100.00;103863.13;5117926;28;20451;-72
2023/02/13 01:03:14;;;;;;;45.65;22.20;;;;;;;4.51;100.00;103866.63;5117464;28;20047;-73
2023/02/13 01:05:40;;;;;;;44.58;21.05;;;;;;;4.51;100.00;103865.75;5117682;28;20040;-73
2023/02/13 01:08:06;;;;;;;47.05;22.40;;;;;;;4.50;100.00;103861.38;5117667;28;20118;-73
2023/02/13 01:10:32;;;;;;;44.78;21.45;;;;;;;4.50;100.00;103859.59;5117683;28;20043;-73
2023/02/13 01:12:57;;;;;;;46.72;21.95;;;;;;;4.48;100.00;103864.06;5117891;28;20032;-73
2023/02/13 01:15:23;;;;;;;45.90;22.63;;;;;;;4.48;100.00;103858.78;5118112;28;20455;-73
2023/02/13 01:17:48;;;;;;;46.15;21.45;;;;;;;4.45;100.00;103858.84;5117859;27;20361;-73
2023/02/13 01:20:14;;;;;;;46.00;23.58;;;;;;;4.46;100.00;103863.19;5117815;28;20119;-72
2023/02/13 01:22:43;;;;;;;46.67;22.90;;;;;;;4.45;100.00;103857.94;5117387;27;20047;-74
2023/02/13 01:25:08;;;;;;;43.70;21.00;;;;;;;4.47;100.00;103861.44;5118360;28;20356;-74
2023/02/13 01:27:33;;;;;;;48.42;21.95;;;;;;;4.45;100.00;103864.09;5116096;28;20037;-74
2023/02/13 01:29:59;;;;;;;46.30;22.40;;;;;;;4.45;100.00;103861.47;5117968;28;20031;-74
2023/02/13 01:32:25;;;;;;;45.10;23.13;;;;;;;4.45;100.00;103855.31;5117605;28;20039;-74
2023/02/13 01:34:50;;;;;;;43.10;22.33;;;;;;;4.44;100.00;103856.22;5117055;28;20031;-74
2023/02/13 01:37:16;;;;;;;46.25;23.27;;;;;;;4.43;100.00;103852.69;5116811;28;20038;-74
2023/02/13 01:39:42;;;;;;;46.90;23.13;;;;;;;4.44;100.00;103848.31;5117120;28;20042;-74
2023/02/13 01:42:28;;;;;;;48.65;22.90;;;;;;;4.44;100.00;103853.59;5117372;28;20039;-75
2023/02/13 01:44:56;;;;;;;46.65;22.95;;;;;;;4.44;100.00;103853.59;5116851;28;20038;-75
2023/02/13 01:47:46;;;;;;;43.97;22.17;;;;;;;4.44;100.00;103858.84;5116837;28;20080;-74
2023/02/13 01:50:25;;;;;;;53.00;23.38;;;;;;;4.43;100.00;103857.09;5117070;28;20024;-75
2023/02/13 01:52:58;;;;;;;47.45;22.83;;;;;;;4.42;100.00;103853.59;5116606;28;20027;-73
2023/02/13 01:55:26;;;;;;;44.25;22.58;;;;;;;4.41;100.00;103860.63;5116884;27;20019;-72
2023/02/13 01:58:06;;;;;;;45.63;22.42;;;;;;;4.42;100.00;103853.59;5116347;28;20034;-72
2023/02/13 02:00:33;;;;;;;47.22;23.00;;;;;;;4.42;100.00;103858.88;5116002;28;20053;-75
2023/02/13 02:03:08;;;;;;;44.85;22.23;;;;;;;4.41;100.00;103850.09;5116683;28;20430;-74
2023/02/13 02:05:35;;;;;;;43.13;21.00;;;;;;;4.40;100.00;103858.00;5117456;28;20059;-74
2023/02/13 02:08:04;;;;;;;49.97;23.83;;;;;;;4.40;100.00;103858.00;5116467;28;20028;-74
2023/02/13 02:10:31;;;;;;;50.08;23.73;;;;;;;4.38;100.00;103850.13;5116251;28;20519;-74
2023/02/13 02:12:59;;;;;;;50.33;23.75;;;;;;;4.39;100.00;103851.03;5116263;28;20048;-74
2023/02/13 02:15:25;;;;;;;44.35;22.98;;;;;;;4.38;100.00;103842.22;5116400;28;20035;-73
2023/02/13 02:17:50;;;;;;;46.70;23.02;;;;;;;4.39;100.00;103846.59;5116903;27;20041;-74
2023/02/13 02:20:44;;;;;;;46.65;22.25;;;;;;;4.38;100.00;103844.88;5116563;28;20028;-74
2023/02/13 02:23:28;;;;;;;48.05;23.15;;;;;;;4.39;100.00;103843.13;5116389;28;20042;-74
2023/02/13 02:25:59;;;;;;;46.65;23.63;;;;;;;4.39;100.00;103843.97;5116488;28;20107;-74
2023/02/13 02:28:42;;;;;;;45.58;22.90;;;;;;;4.38;100.00;103842.22;5116250;28;20032;-74
2023/02/13 02:31:26;;;;;;;43.97;23.08;;;;;;;4.38;100.00;103846.63;5116285;28;20035;-74
2023/02/13 02:34:25;;;;;;;48.92;23.20;;;;;;;4.38;100.00;103839.59;5116124;28;20024;-74
2023/02/13 02:37:11;;;;;;;44.28;23.25;;;;;;;4.40;100.00;103839.56;5116094;28;20035;-74
2023/02/13 02:39:49;;;;;;;45.33;22.95;;;;;;;4.39;100.00;103841.34;5115998;28;20045;-74
2023/02/13 02:42:24;;;;;;;46.75;23.27;;;;;;;4.38;100.00;103839.59;5115968;28;20031;-73
2023/02/13 02:45:08;;;;;;;49.20;22.77;;;;;;;4.37;100.00;103834.34;5116436;27;20024;-74
2023/02/13 02:50:29;;;;;;;48.75;23.75;;;;;;;4.36;100.00;103833.47;5116055;28;20041;-74
2023/02/13 02:53:04;;;;;;;51.25;24.23;;;;;;;4.35;100.00;103830.88;5115795;28;20122;-74
2023/02/13 02:55:36;;;;;;;48.13;23.48;;;;;;;4.34;100.00;103827.34;5115643;28;20471;-74
2023/02/13 03:06:48;;;;;;;49.78;23.73;;;;;;;4.34;100.00;103823.84;5114451;28;20043;-74
2023/02/13 03:14:46;;;;;;;46.67;24.13;;;;;;;4.34;100.00;103829.97;5115751;28;20083;-76
2023/02/13 03:23:24;;;;;;;51.90;24.42;;;;;;;4.33;100.00;103816.81;5115538;28;20042;-74
2023/02/13 03:26:04;;;;;;;52.13;25.48;;;;;;;4.34;100.00;103821.22;5115074;28;20464;-74
2023/02/13 03:32:00;;;;;;;50.40;24.25;;;;;;;4.34;100.00;103823.84;5114910;28;20387;-74
2023/02/13 03:37:53;;;;;;;47.80;24.73;;;;;;;4.33;100.00;103819.47;5114542;28;20036;-75
2023/02/13 03:40:13;;;;;;;59.17;23.85;;;;;;;4.32;100.00;103807.19;5114978;28;20042;-75
2023/02/13 03:42:48;;;;;;;49.85;23.80;;;;;;;4.31;100.00;103811.56;5115044;28;20030;-75
2023/02/13 03:45:56;;;;;;;47.45;23.65;;;;;;;4.33;100.00;103808.91;5114962;28;20024;-75
2023/02/13 03:51:32;;;;;;;51.13;25.35;;;;;;;4.31;100.00;103805.44;5114740;28;20062;-75
2023/02/13 03:54:07;;;;;;;52.55;24.40;;;;;;;4.30;100.00;103798.44;5114707;28;20055;-75
2023/02/13 03:59:28;;;;;;;51.10;24.55;;;;;;;4.29;100.00;103796.72;5114371;28;20108;-75
2023/02/13 04:02:04;;;;;;;;;;;;;;;4.31;100.00;103805.44;5113499;28;20024;-74
2023/02/13 04:04:39;;;;;;;47.53;22.73;;;;;;;4.29;100.00;103800.19;5113212;28;19914;-75
2023/02/13 04:07:28;;;;;;;51.28;24.67;;;;;;;4.31;100.00;103805.44;5114402;28;20035;-75
2023/02/13 04:09:55;;;;;;;49.30;24.42;;;;;;;4.31;100.00;103797.53;5114959;28;20345;-75
2023/02/13 04:12:55;;;;;;;48.03;24.33;;;;;;;4.31;100.00;103805.44;5113732;28;20027;-75
2023/02/13 04:15:47;;;;;;;52.20;24.60;;;;;;;4.31;100.00;103805.44;5113509;28;20535;-74
2023/02/13 04:18:26;;;;;;;48.72;24.00;;;;;;;4.29;100.00;103797.56;5082336;28;20048;-75
2023/02/13 04:20:51;;;;;;;51.60;24.65;;;;;;;4.29;100.00;103801.97;5114064;28;20036;-75
2023/02/13 04:23:17;;;;;;;49.25;23.50;;;;;;;4.29;100.00;103799.34;5113621;27;20038;-75
2023/02/13 04:25:46;;;;;;;49.85;24.15;;;;;;;4.27;100.00;103799.38;5113616;28;20040;-75
2023/02/13 04:28:11;;;;;;;47.92;22.50;;;;;;;4.29;100.00;103801.97;5114394;28;20398;-74
2023/02/13 04:30:37;;;;;;;45.85;23.67;;;;;;;4.29;100.00;103801.97;5113900;28;20028;-75
2023/02/13 04:33:02;;;;;;;50.55;24.00;;;;;;;4.30;100.00;103808.97;5113853;28;20027;-75
2023/02/13 04:35:28;;;;;;;49.38;24.52;;;;;;;4.31;100.00;103805.44;5113775;28;20032;-75
2023/02/13 04:37:53;;;;;;;47.60;24.33;;;;;;;4.32;100.00;103807.19;5112750;28;20467;-75
2023/02/13 04:40:18;;;;;;;50.13;22.75;;;;;;;4.31;100.00;103806.31;5113471;28;20055;-73
2023/02/13 04:42:47;;;;;;;43.20;22.88;;;;;;;4.31;100.00;103805.44;5113801;28;20472;-76
2023/02/13 04:45:13;;;;;;;49.38;23.95;;;;;;;4.32;100.00;103812.47;5113867;28;20077;-73
2023/02/13 04:47:38;;;;;;;49.10;24.50;;;;;;;4.32;100.00;103805.41;5113960;28;20027;-75
2023/02/13 04:50:04;;;;;;;50.70;23.85;;;;;;;4.32;100.00;103805.41;5113709;28;20024;-74
2023/02/13 04:52:29;;;;;;;52.80;24.85;;;;;;;4.33;100.00;103801.00;5113826;28;20118;-74
2023/02/13 04:54:55;;;;;;;47.83;23.30;;;;;;;4.32;100.00;103789.59;5113380;28;20480;-75
2023/02/13 04:57:20;;;;;;;47.90;23.50;;;;;;;4.32;100.00;103797.50;5113554;28;20379;-73
2023/02/13 04:59:45;;;;;;;44.33;22.77;;;;;;;4.33;100.00;103793.09;5113655;28;20035;-75
2023/02/13 05:02:11;;;;;;;51.25;24.02;;;;;;;4.31;100.00;103795.75;5113876;28;20380;-75
2023/02/13 05:04:36;;;;;;;50.83;24.02;;;;;;;4.29;100.00;103787.03;5113508;28;20024;-75
2023/02/13 05:07:01;;;;;;;45.50;22.85;;;;;;;4.31;100.00;103794.91;5113551;28;20380;-75
2023/02/13 05:09:27;;;;;;;49.83;23.60;;;;;;;4.29;100.00;103787.03;5112097;28;20046;-74
2023/02/13 05:11:53;;;;;;;52.63;23.90;;;;;;;4.29;100.00;103792.28;5113458;28;20081;-75
2023/02/13 05:14:18;;;;;;;46.25;23.15;;;;;;;4.28;100.00;103784.41;5113445;28;20077;-74
2023/02/13 05:16:44;;;;;;;44.25;21.90;;;;;;;4.29;100.00;103789.66;5113474;28;20035;-74
2023/02/13 05:19:09;;;;;;;51.10;23.45;;;;;;;4.30;100.00;103798.44;5113056;28;20526;-74
2023/02/13 05:24:18;;;;;;;46.40;22.95;;;;;;;4.27;100.00;103795.84;5113914;28;20047;-73
2023/02/13 05:26:44;;;;;;;48.90;23.30;;;;;;;4.25;100.00;103780.06;5113336;28;20146;-74
2023/02/13 05:29:19;;;;;;;46.05;21.23;;;;;;;4.26;100.00;103789.72;5112628;28;20031;-74
2023/02/13 05:31:46;;;;;;;47.10;23.42;;;;;;;4.23;100.00;103780.09;5113310;28;20035;-74
2023/02/13 05:34:11;;;;;;;48.67;23.42;;;;;;;4.24;100.00;103781.84;5113077;28;20059;-74
2023/02/13 05:36:37;;;;;;;47.67;24.50;;;;;;;4.24;100.00;103781.84;5117068;28;20162;-74
2023/02/13 05:39:02;;;;;;;44.58;22.80;;;;;;;4.25;100.00;103780.06;5117145;28;20057;-74
2023/02/13 05:41:28;;;;;;;45.60;23.10;;;;;;;4.25;100.00;103782.69;5116950;28;20023;-74
2023/02/13 05:43:53;;;;;;;44.03;21.92;;;;;;;4.26;100.00;103788.84;5116971;28;20038;-74
2023/02/13 05:46:19;;;;;;;52.45;23.13;;;;;;;4.24;100.00;103787.09;5116971;27;20092;-74
2023/02/13 05:48:44;;;;;;;46.72;23.20;;;;;;;4.24;100.00;103787.09;5098219;28;20024;-74
2023/02/13 05:51:09;;;;;;;45.50;22.33;;;;;;;4.25;100.00;103790.59;5116858;28;20051;-74
2023/02/13 05:53:35;;;;;;;47.80;23.52;;;;;;;4.24;100.00;103789.75;5116759;28;20036;-74
2023/02/13 05:56:01;;;;;;;49.17;23.27;;;;;;;4.24;100.00;103792.38;5116472;28;20420;-75
2023/02/13 05:58:27;;;;;;;47.13;23.33;;;;;;;4.24;100.00;103788.88;5117177;28;20028;-74
2023/02/13 06:00:56;;;;;;;44.88;21.55;;;;;;;4.25;100.00;103790.59;5116666;28;20057;-74
2023/02/13 06:03:22;;;;;;;48.20;23.08;;;;;;;4.25;100.00;103780.06;5116443;28;20110;-73
2023/02/13 06:05:47;;;;;;;46.20;21.55;;;;;;;4.26;100.00;103786.22;5116537;27;20074;-74
2023/02/13 06:08:12;;;;;;;48.90;21.83;;;;;;;4.26;100.00;103780.94;5116493;28;20046;-73
2023/02/13 06:10:38;;;;;;;41.30;21.25;;;;;;;4.24;100.00;103780.97;5117798;28;20035;-74
2023/02/13 06:13:03;;;;;;;48.63;22.38;;;;;;;4.25;100.00;103787.97;5122347;28;20440;-74
2023/02/13 06:15:29;;;;;;;51.60;22.52;;;;;;;4.22;100.00;103775.72;5117141;28;20039;-73
2023/02/13 06:17:54;;;;;;;46.15;22.63;;;;;;;4.22;100.00;103773.09;5116473;28;20425;-73
2023/02/13 06:20:19;;;;;;;47.45;22.42;;;;;;;4.21;100.00;103773.09;5116111;28;20059;-74
2023/02/13 06:22:51;;;;;;;47.35;22.33;;;;;;;4.19;100.00;103772.25;5116472;28;20040;-73
2023/02/13 06:25:18;;;;;;;46.35;22.13;;;;;;;4.20;100.00;103776.63;5116424;28;20478;-74
2023/02/13 06:27:43;;;;;;;44.83;22.23;;;;;;;4.17;100.00;103769.66;5115819;28;20050;-73
2023/02/13 06:30:09;;;;;;;46.70;22.30;;;;;;;4.17;100.00;103769.66;5116125;28;20460;-73
2023/02/13 06:32:35;;;;;;;47.25;21.90;;;;;;;4.17;100.00;103771.41;5116254;28;20032;-73
2023/02/13 06:35:00;;;;;;;46.78;21.38;;;;;;;4.16;100.00;103767.91;5116294;28;20038;-74
2023/02/13 06:37:26;;;;;;;45.08;22.23;;;;;;;4.17;100.00;103772.28;5115961;28;20027;-72
2023/02/13 06:39:51;;;;;;;48.22;23.10;;;;;;;4.18;100.00;103784.56;5116207;27;20448;-72
2023/02/13 06:42:17;;;;;;;46.40;22.38;;;;;;;4.19;100.00;103774.88;5116229;28;20045;-73
2023/02/13 06:44:43;;;;;;;47.80;21.90;;;;;;;4.22;100.00;103777.47;5115799;28;20106;-73
2023/02/13 06:47:09;;;;;;;49.72;21.88;;;;;;;4.22;100.00;103780.09;5115446;28;20055;-73
2023/02/13 06:49:34;;;;;;;45.75;21.38;;;;;;;4.22;100.00;103785.38;5115804;28;20032;-73
2023/02/13 06:51:59;;;;;;;48.47;23.00;;;;;;;4.22;100.00;103785.38;5115455;27;20024;-73
2023/02/13 06:54:25;;;;;;;47.10;21.45;;;;;;;4.24;100.00;103787.09;5115712;28;20471;-73
2023/02/13 06:56:50;;;;;;;43.75;21.75;;;;;;;4.24;100.00;103788.88;5115563;28;20038;-74
2023/02/13 06:59:15;;;;;;;46.13;22.23;;;;;;;4.23;100.00;103792.41;5114692;28;20028;-73
2023/02/13 07:01:41;;;;;;;49.97;21.50;;;;;;;4.24;100.00;103802.91;5114129;28;20456;-75
2023/02/13 07:04:06;;;;;;;51.20;22.08;;;;;;;4.27;100.00;103804.66;5114208;28;20504;-74
2023/02/13 07:06:31;;;;;;;56.25;22.10;;;;;;;4.28;100.00;103806.34;5115157;28;20036;-73
2023/02/13 07:08:57;;;;;;;41.55;20.50;;;;;;;4.29;100.00;103809.88;5116004;28;20103;-74
2023/02/13 07:11:24;;;;;;;51.15;22.10;;;;;;;4.30;100.00;103808.97;5115152;28;20109;-75
2023/02/13 07:13:50;;;;;;;48.08;22.00;;;;;;;4.32;100.00;103809.84;5115158;28;20032;-74
2023/02/13 07:16:15;;;;;;;40.85;21.27;;;;;;;4.33;100.00;103817.72;5115151;28;20023;-73
2023/02/13 07:18:41;;;;;;;48.95;21.05;;;;;;;4.36;100.00;103820.31;5114574;28;20058;-72
2023/02/13 07:21:07;;;;;;;49.13;21.85;;;;;;;4.39;100.00;103822.03;5115083;28;20051;-72
2023/02/13 07:23:32;;;;;;;43.75;21.13;;;;;;;4.41;100.00;103817.59;5113744;28;20039;-73
2023/02/13 07:25:59;;;;;;;46.35;20.88;;;;;;;4.45;100.00;103818.38;5115133;28;20034;-74
2023/02/13 07:28:24;;;;;;;43.55;21.23;;;;;;;4.45;100.00;103819.28;5114886;28;20077;-74
2023/02/13 07:30:50;;;;;;;45.22;21.08;;;;;;;4.50;100.00;103820.06;5114533;28;20036;-75
2023/02/13 07:33:15;;;;;;;44.58;23.15;;;;;;;4.51;100.00;103819.16;5114266;28;20035;-74
2023/02/13 07:35:48;;;;;;;47.67;21.17;;;;;;;4.56;100.00;103811.19;5114516;28;20032;-75
2023/02/13 07:38:15;;;;;;;45.45;21.65;;;;;;;4.57;100.00;103819.06;5114448;27;20024;-75
2023/02/13 07:40:40;;;;;;;45.47;20.25;;;;;;;4.62;100.00;103818.97;5114290;28;20038;-75
2023/02/13 07:43:06;;;;;;;47.33;22.70;;;;;;;4.64;100.00;103817.16;5114091;28;20027;-74
2023/02/13 07:45:31;;;;;;;38.92;19.67;;;;;;;4.68;100.00;103810.09;5114810;28;20054;-74
2023/02/13 07:47:57;;;;;;;43.95;20.83;;;;;;;4.72;100.00;103814.41;5114437;28;20024;-74
2023/02/13 07:50:23;;;;;;;48.83;22.23;;;;;;;4.75;100.00;103817.00;5114780;28;20436;-75
2023/02/13 07:53:01;;;;;;;43.25;21.40;;;;;;;4.80;100.00;103809.00;5114339;28;20449;-75
2023/02/13 07:55:28;;;;;;;47.13;22.02;;;;;;;4.82;100.00;103808.06;5114107;28;20028;-75
2023/02/13 07:57:54;;;;;;;41.70;20.02;;;;;;;4.89;100.00;103811.44;5113066;28;20110;-81
2023/02/13 08:00:20;;;;;;;41.53;20.42;;;;;;;4.92;100.00;103817.53;5113705;28;20068;-74
2023/02/13 08:02:46;;;;;;;44.85;21.65;;;;;;;4.96;100.00;103818.34;5114379;27;20058;-77
2023/02/13 08:05:12;;;;;;;46.13;21.45;;;;;;;5.03;100.00;103821.72;5113999;28;20028;-75
2023/02/13 08:07:37;;;;;;;44.42;20.83;;;;;;;5.08;100.00;103819.88;5113685;28;20032;-80
2023/02/13 08:12:52;;;;;;;43.75;21.25;;;;;;;5.23;100.00;103814.28;5113670;28;20070;-75
2023/02/13 08:15:17;;;;;;;40.30;20.77;;;;;;;5.30;100.00;103813.25;5113705;28;20062;-79
2023/02/13 08:17:43;;;;;;;43.78;20.98;;;;;;;5.38;100.00;103818.38;5113881;28;20058;-76
2023/02/13 08:20:09;;;;;;;41.58;20.40;;;;;;;5.42;100.00;103809.50;5113121;28;20488;-78
2023/02/13 08:22:38;;;;;;;46.17;21.27;;;;;;;5.50;100.00;103817.25;5113728;27;20135;-77
2023/02/13 08:25:05;;;;;;;44.30;20.30;;;;;;;5.58;100.00;103814.44;5113453;28;20038;-76
2023/02/13 08:27:30;;;;;;;44.38;21.15;;;;;;;5.62;100.00;103816.13;5113598;28;20084;-78
2023/02/13 08:29:56;;;;;;;41.30;21.05;;;;;;;5.68;100.00;103813.34;5113958;28;20063;-78
2023/02/13 08:32:23;;;;;;;43.65;21.55;;;;;;;5.74;100.00;103814.97;5113578;28;20027;-77
2023/02/13 08:34:49;;;;;;;38.92;19.90;;;;;;;5.81;100.00;103824.50;5112109;28;20055;-78
2023/02/13 08:37:14;;;;;;;41.55;20.08;;;;;;;5.87;100.00;103823.47;5113431;28;20263;-77
2023/02/13 08:39:39;;;;;;;37.88;19.92;;;;;;;5.94;100.00;103818.03;5113120;28;20032;-77
2023/02/13 08:42:05;;;;;;;39.05;19.98;;;;;;;6.02;100.00;103820.53;5114087;28;20511;-78
2023/02/13 08:44:30;;;;;;;41.67;20.95;;;;;;;6.10;100.00;103825.63;5113597;28;20123;-80
2023/02/13 08:46:56;;;;;;;38.95;20.30;;;;;;;6.12;100.00;103824.69;5113820;28;20537;-76
2023/02/13 08:49:22;;;;;;;39.78;20.73;;;;;;;6.20;100.00;103832.44;5114196;28;20039;-78
2023/02/13 08:51:48;;;;;;;45.63;21.42;;;;;;;6.30;100.00;103826.03;5114405;28;20085;-78
2023/02/13 08:54:13;;;;;;;42.97;20.85;;;;;;;6.38;100.00;103832.91;5115249;28;20036;-77
2023/02/13 08:56:39;;;;;;;41.20;20.83;;;;;;;6.47;100.00;103828.22;5114309;28;20077;-78
2023/02/13 08:59:04;;;;;;;46.88;22.30;;;;;;;6.49;100.00;103828.19;5113344;28;20042;-80
2023/02/13 09:01:29;;;;;;;45.53;21.35;;;;;;;6.56;100.00;103829.78;5113620;28;20059;-78
2023/02/13 09:03:55;;;;;;;45.10;21.77;;;;;;;6.61;100.00;103825.22;5113522;28;20380;-78
2023/02/13 09:06:20;;;;;;;40.60;21.70;;;;;;;6.66;100.00;103818.03;5113508;28;20421;-79
2023/02/13 09:08:46;;;;;;;47.15;22.55;;;;;;;6.69;100.00;103830.34;5114164;28;20105;-76
2023/02/13 09:11:11;;;;;;;43.08;23.05;;;;;;;6.60;100.00;103826.16;5116612;28;20034;-78
2023/02/13 09:13:37;;;;;;;41.80;22.38;;;;;;;6.63;100.00;103822.56;5118000;28;20039;-78
2023/02/13 09:16:06;;;;;;;51.92;25.58;;;;;;;6.71;100.00;103826.72;5117477;28;20028;-80
2023/02/13 09:18:32;;;;;;;42.28;23.30;;;;;;;6.73;100.00;103821.38;5117671;28;20031;-78
2023/02/13 09:20:59;;;;;;;47.45;23.58;;;;;;;6.71;100.00;103821.41;5118149;28;20059;-78
2023/02/13 09:23:25;;;;;;;40.08;22.67;;;;;;;6.81;100.00;103822.06;5117568;28;20100;-80
2023/02/13 09:25:50;;;;;;;41.63;22.80;;;;;;;6.94;100.00;103822.59;5117150;28;20028;-79
2023/02/13 09:28:16;;;;;;;44.63;23.17;;;;;;;7.01;100.00;103823.28;5117167;28;20042;-82
2023/02/13 09:30:41;;;;;;;43.15;22.95;;;;;;;7.21;100.00;103828.91;5115869;28;20057;-74
2023/02/13 09:33:09;;;;;;;47.58;25.60;;;;;;;7.36;100.00;103824.03;5116601;28;20055;-74
2023/02/13 09:35:35;;;;;;;50.35;26.35;;;;;;;7.46;100.00;103829.94;5116966;28;20170;-76
2023/02/13 09:38:00;;;;;;;47.25;26.55;;;;;;;7.54;100.00;103820.88;5116585;28;20074;-74
2023/02/13 09:40:34;;;;;;;44.42;25.45;;;;;;;7.59;100.00;103829.53;5117333;28;20028;-76
2023/02/13 09:43:12;;;;;;;50.28;27.15;;;;;;;7.68;100.00;103828.38;5118038;28;20028;-80
2023/02/13 09:45:38;;;;;;;50.15;25.92;;;;;;;7.79;100.00;103829.84;5118645;28;20038;-78
2023/02/13 09:48:05;;;;;;;47.80;23.35;;;;;;;7.83;100.00;103820.88;5116612;28;20380;-80
2023/02/13 09:50:33;;;;;;;46.75;25.65;;;;;;;8.09;100.00;103817.38;5115275;28;20059;-80
2023/02/13 09:53:00;;;;;;;43.42;24.65;;;;;;;8.27;100.00;103821.22;5116523;28;20058;-74
2023/02/13 09:55:36;;;;;;;49.10;25.38;;;;;;;8.73;100.00;103821.47;5116681;28;20101;-76
2023/02/13 09:58:30;;;;;;;40.33;24.75;;;;;;;9.35;100.00;103814.78;5117098;28;20355;-76
2023/02/13 10:00:59;;;;;;;43.38;25.33;;;;;;;10.32;100.00;103813.56;5098857;28;20047;-75
2023/02/13 10:03:30;;;;;;;40.25;24.20;;;;;;;10.93;100.00;103818.03;5115367;28;20140;-75
2023/02/13 10:06:04;;;;;;;44.28;25.40;;;;;;;11.58;100.00;103812.38;5116823;28;20111;-77
2023/02/13 10:08:38;;;;;;;39.67;24.58;;;;;;;11.32;100.00;103813.63;5116684;28;20070;-79
2023/02/13 10:11:27;;;;;;;45.20;25.67;;;;;;;10.58;100.00;103815.16;5116446;27;20054;-75
2023/02/13 10:14:04;;;;;;;48.78;25.35;;;;;;;10.13;100.00;103815.25;5103332;28;20038;-75
2023/02/13 10:16:36;;;;;;;39.13;24.55;;;;;;;10.26;100.00;103815.63;5116943;28;20065;-78
2023/02/13 10:19:23;;;;;;;45.45;25.63;;;;;;;11.79;100.00;103814.97;5116815;28;20031;-76
2023/02/13 10:21:54;;;;;;;39.15;24.35;;;;;;;13.19;100.00;103814.97;5115094;28;20057;-76
2023/02/13 10:24:56;;;;;;;43.28;23.90;;;;;;;13.70;99.54;103820.19;5116485;28;20111;-76
2023/02/13 10:27:30;;;;;;;36.80;22.77;;;;;;;14.02;93.70;103807.66;5116193;28;20031;-76
2023/02/13 10:30:04;;;;;;;43.58;25.33;;;;;;;14.41;88.06;103811.59;5116172;28;20028;-77
2023/02/13 10:32:39;;;;;;;39.90;23.95;;;;;;;14.19;86.43;103795.94;5115788;28;20057;-76
2023/02/13 10:35:23;;;;;;;40.95;25.67;;;;;;;14.03;90.39;103800.47;5115784;28;20485;-74
2023/02/13 10:37:53;;;;;;;38.25;24.55;;;;;;;14.15;85.91;103794.38;5115516;28;20024;-74
2023/02/13 10:40:19;;;;;;;41.45;25.42;;;;;;;14.37;83.03;103803.84;5115987;28;20133;-76
2023/02/13 10:43:06;;;;;;;39.67;22.73;;;;;;;14.19;84.03;103800.44;5115692;28;20479;-74
2023/02/13 10:45:41;;;;;;;37.95;23.60;;;;;;;13.96;89.74;103802.66;5115956;28;20027;-79
2023/02/13 10:48:17;;;;;;;37.38;23.73;;;;;;;14.03;86.15;103803.16;5116104;27;20035;-75
2023/02/13 10:51:04;;;;;;;34.30;21.33;;;;;;;14.25;86.18;103792.03;5116325;28;20055;-76
2023/02/13 10:53:32;;;;;;;37.42;21.73;;;;;;;14.55;80.38;103791.16;5117181;28;20027;-77
2023/02/13 10:56:19;;;;;;;36.85;20.95;;;;;;;14.40;78.17;103787.56;5126446;28;20169;-78
2023/02/13 10:59:05;;;;;;;35.40;22.17;;;;;;;14.49;81.43;103794.19;5118332;27;20102;-78
2023/02/13 11:01:46;;;;;;;38.65;23.63;;;;;;;13.84;83.13;103785.50;5117086;28;20475;-79
2023/02/13 11:04:17;;;;;;;37.50;23.15;;;;;;;13.63;82.03;103787.59;5115813;28;20099;-77
2023/02/13 11:07:00;;;;;;;38.13;23.40;;;;;;;13.93;89.37;103787.63;5114669;28;20024;-75
2023/02/13 11:09:30;;;;;;;39.80;23.80;;;;;;;13.50;82.56;103792.75;5115891;28;20028;-74
2023/02/13 11:11:55;;;;;;;37.72;23.48;;;;;;;13.31;92.11;103789.34;5114978;28;20088;-75
2023/02/13 11:14:22;;;;;;;36.60;23.05;;;;;;;13.17;96.12;103792.81;5114915;28;20429;-75
2023/02/13 11:16:50;;;;;;;38.25;23.15;;;;;;;13.17;94.88;103782.97;5115183;28;20107;-78
2023/02/13 11:19:37;;;;;;;39.45;24.02;;;;;;;12.77;99.89;103776.25;5115452;28;20035;-76
2023/02/13 11:22:07;;;;;;;45.33;23.30;;;;;;;12.66;100.00;103768.81;5114930;28;20031;-77
2023/02/13 11:24:34;;;;;;;40.92;23.70;;;;;;;12.44;99.68;103769.06;5115403;28;20502;-77
2023/02/13 11:27:07;;;;;;;40.65;23.15;;;;;;;11.97;100.00;103759.88;5114659;28;20482;-73
2023/02/13 11:29:35;;;;;;;45.13;25.40;;;;;;;11.51;100.00;103754.09;5114871;28;20569;-74
2023/02/13 11:32:17;;;;;;;40.80;24.92;;;;;;;11.42;100.00;103750.06;5114331;28;20024;-74
2023/02/13 11:34:42;;;;;;;47.65;25.42;;;;;;;11.43;100.00;103750.00;5114933;28;20030;-74
2023/02/13 11:37:10;;;;;;;46.55;25.27;;;;;;;11.11;100.00;103757.72;5114301;28;20036;-73
2023/02/13 11:39:36;;;;;;;43.65;24.65;;;;;;;10.82;100.00;103752.88;5114296;28;20024;-72
2023/02/13 11:42:01;;;;;;;44.00;24.70;;;;;;;11.02;100.00;103749.31;5114446;28;20054;-72
2023/02/13 11:44:31;;;;;;;42.67;23.92;;;;;;;11.31;100.00;103744.41;5114354;28;20038;-73
2023/02/13 11:46:59;;;;;;;39.22;24.30;;;;;;;11.50;100.00;103745.25;5114458;28;20027;-73
2023/02/13 11:49:26;;;;;;;43.28;23.92;;;;;;;11.34;100.00;103745.09;5114149;28;20032;-72
2023/02/13 11:51:55;;;;;;;39.55;24.33;;;;;;;11.33;100.00;103737.19;5113824;28;20035;-72
2023/02/13 11:54:42;;;;;;;44.83;24.48;;;;;;;11.32;100.00;103733.66;5113996;28;20034;-74
2023/02/13 11:57:30;;;;;;;41.88;23.65;;;;;;;11.63;100.00;103733.03;5113870;28;20030;-74
2023/02/13 11:59:57;;;;;;;42.53;24.77;;;;;;;11.92;100.00;103737.88;5114208;28;20613;-74